Arthur Brusco — WDC3449 — position and weather

sailwx.info

Track history (hours):
 
Tides and Currents Weather Stations Pressure Air Temp Water Temp Dewpoint Dewpoint Depression Visibility Wind Speed Wind Dir Waves Ship Positions

Arthur Brusco

Owner: Brusco Tug & Barge, Inc., Longview, WA. More information available from US FCC via Universal Licensing System and Coast Guard Vessel Documentation Center.

Last reported at 2014-Oct-31 15:33 UTC. Time now 2014-Oct-31 15:48 UTC.
Position N 37°33' W 122°12'.

Length 35 m; draft 4.2 m.

Type: Towing. MMSI: 367008020.

Date/timePositionNaut miles runAvg speedWind from/ knotsBaromVisibWave heightAir tempDewpointWater temp
2014-Oct-31 15:33N 37°33' W 122°12'0 0.1
2014-Oct-31 14:33N 37°33' W 122°11'0 0.0
2014-Oct-31 13:33N 37°33' W 122°11'0 0.0
2014-Oct-31 12:33N 37°33' W 122°11'5 5.2
2014-Oct-31 11:33N 37°36' W 122°17'1111.0
2014-Oct-31 10:33N 37°46' W 122°22'2 1.6
2014-Oct-31 09:33N 37°48' W 122°23'7 7.1
2014-Oct-31 08:33N 37°41' W 122°20'8 8.0
2014-Oct-31 07:33N 37°35' W 122°14'4 3.5
2014-Oct-31 06:33N 37°32' W 122°12'2 1.6
2014-Oct-31 05:33N 37°33' W 122°12'0 0.0
2014-Oct-31 04:33N 37°33' W 122°12'0 0.0
2014-Oct-31 03:33N 37°33' W 122°12'0 0.0
2014-Oct-31 02:33N 37°33' W 122°12'0 0.1
2014-Oct-31 01:33N 37°33' W 122°11'0 0.0
2014-Oct-31 00:33N 37°33' W 122°11'0 0.0
2014-Oct-30 23:33N 37°33' W 122°11'0 0.0
2014-Oct-30 22:33N 37°33' W 122°11'0 0.0
2014-Oct-30 21:33N 37°33' W 122°11'6 5.5
2014-Oct-30 20:33N 37°37' W 122°17'9 9.0
2014-Oct-30 19:33N 37°45' W 122°22'5 5.0
2014-Oct-30 18:33N 37°49' W 122°25'8 7.8
2014-Oct-30 17:33N 37°42' W 122°20'8 7.7
2014-Oct-30 16:33N 37°35' W 122°16'5 4.8
2014-Oct-30 15:33N 37°32' W 122°12'1 1.4
2014-Oct-30 14:32N 37°30' W 122°13'0 0.0
2014-Oct-30 13:31N 37°30' W 122°13'0 0.0
2014-Oct-30 12:32N 37°30' W 122°13'0 0.0
2014-Oct-30 07:32N 37°31' W 122°13'3 2.9
2014-Oct-30 06:33N 37°33' W 122°12'0 0.0
2014-Oct-30 05:33N 37°33' W 122°12'0 0.0
2014-Oct-30 04:33N 37°33' W 122°12'0 0.0
2014-Oct-30 03:33N 37°33' W 122°12'2 2.0
2014-Oct-30 02:33N 37°34' W 122°14'8 7.9
2014-Oct-30 01:33N 37°41' W 122°19'8 8.0
2014-Oct-30 00:33N 37°48' W 122°24'1 0.8
2014-Oct-29 23:33N 37°47' W 122°23'7 6.8
2014-Oct-29 22:33N 37°41' W 122°20'6 6.1
2014-Oct-29 21:33N 37°36' W 122°16'4 4.4
2014-Oct-29 20:33N 37°33' W 122°12'3 0.2
2014-Oct-29 07:06N 37°30' W 122°13'0 0.0
2014-Oct-29 05:25N 37°30' W 122°13'0 0.0
2014-Oct-29 04:09N 37°30' W 122°13'2 3.5
2014-Oct-29 03:33N 37°32' W 122°12'1 1.0
2014-Oct-29 02:33N 37°33' W 122°12'0 0.0
2014-Oct-29 01:33N 37°33' W 122°12'0 0.1
2014-Oct-29 00:33N 37°33' W 122°11'0 0.1
2014-Oct-28 23:33N 37°33' W 122°11'0 0.0
2014-Oct-28 22:33N 37°33' W 122°11'0 0.0
2014-Oct-28 21:33N 37°33' W 122°11'6 5.6
2014-Oct-28 20:33N 37°37' W 122°17'9 9.3
2014-Oct-28 19:33N 37°45' W 122°22'4 4.2
2014-Oct-28 18:33N 37°49' W 122°24'6 5.7
2014-Oct-28 17:33N 37°44' W 122°21'7 6.6
2014-Oct-28 16:33N 37°38' W 122°18'6 6.1
2014-Oct-28 15:30N 37°33' W 122°12'3 2.7
2014-Oct-28 14:33N 37°31' W 122°13'0 0.4
2014-Oct-28 13:30N 37°30' W 122°13'0 0.0
2014-Oct-28 12:30N 37°30' W 122°13'0 0.0
2014-Oct-28 10:18N 37°30' W 122°13'0 0.0
2014-Oct-28 09:24N 37°30' W 122°13'0 0.0
2014-Oct-28 08:33N 37°30' W 122°13'0 0.0
2014-Oct-28 07:33N 37°30' W 122°13'0 0.0
2014-Oct-28 06:32N 37°30' W 122°13'0 0.0
2014-Oct-28 05:32N 37°30' W 122°13'0 0.0
2014-Oct-28 04:32N 37°30' W 122°13'0 0.0
2014-Oct-28 03:32N 37°30' W 122°13'0 0.0
2014-Oct-28 02:33N 37°30' W 122°13'0 0.0
2014-Oct-28 01:32N 37°30' W 122°13'0 0.0
2014-Oct-28 00:33N 37°30' W 122°13'4 4.1
2014-Oct-27 23:33N 37°34' W 122°14'1111.2
2014-Oct-27 22:33N 37°44' W 122°21'1110.9
2014-Oct-27 21:33N 37°55' W 122°25'4 3.6
2014-Oct-27 20:33N 37°51' W 122°24'5 5.1
2014-Oct-27 19:33N 37°46' W 122°22'5 4.8
2014-Oct-27 18:33N 37°42' W 122°20'5 5.2
2014-Oct-27 17:33N 37°37' W 122°17'6 5.9
2014-Oct-27 16:33N 37°33' W 122°12'1 1.0
2014-Oct-27 15:32N 37°32' W 122°12'0 0.0
2014-Oct-27 14:32N 37°32' W 122°12'2 1.7
2014-Oct-27 13:29N 37°30' W 122°13'0 0.5
2014-Oct-27 12:33N 37°31' W 122°13'4 4.4
2014-Oct-27 11:33N 37°35' W 122°15'7 6.6
2014-Oct-27 10:33N 37°40' W 122°20'7 7.2
2014-Oct-27 09:33N 37°47' W 122°23'6 6.2
2014-Oct-27 08:33N 37°53' W 122°25'2 2.1
2014-Oct-27 07:31N 37°55' W 122°25'0 0.1
2014-Oct-27 06:28N 37°55' W 122°25'4 4.2
2014-Oct-27 05:33N 37°52' W 122°24'1010.3
2014-Oct-27 04:33N 37°42' W 122°20'1111.2
2014-Oct-27 03:33N 37°33' W 122°12'2 2.4
2014-Oct-27 02:30N 37°30' W 122°13'0 0.0
2014-Oct-27 01:30N 37°30' W 122°13'0 0.0
2014-Oct-27 00:30N 37°30' W 122°13'0 0.0
2014-Oct-26 23:30N 37°30' W 122°13'0 0.0
2014-Oct-26 22:24N 37°30' W 122°13'0 0.0
2014-Oct-26 21:30N 37°30' W 122°13'0 0.1
2014-Oct-26 20:32N 37°30' W 122°13'0 0.0
2014-Oct-26 19:32N 37°30' W 122°13'0 0.0
2014-Oct-26 18:32N 37°30' W 122°13'0 0.0
2014-Oct-26 17:32N 37°30' W 122°13'0 0.0
2014-Oct-26 16:26N 37°30' W 122°13'0 0.0
2014-Oct-26 15:32N 37°30' W 122°13'0 0.0
2014-Oct-26 14:26N 37°30' W 122°13'0 0.0
2014-Oct-26 13:32N 37°30' W 122°13'0 0.0
2014-Oct-26 12:32N 37°30' W 122°13'0 0.0
2014-Oct-26 11:32N 37°30' W 122°13'0 0.0
2014-Oct-26 10:32N 37°30' W 122°13'0 0.0
2014-Oct-26 09:32N 37°30' W 122°13'0 0.0
2014-Oct-26 08:32N 37°30' W 122°13'0 0.0
2014-Oct-26 07:34N 37°30' W 122°13'0 0.0
2014-Oct-26 06:34N 37°30' W 122°13'0 0.0
2014-Oct-26 05:34N 37°30' W 122°13'0 0.0
2014-Oct-26 04:34N 37°30' W 122°13'0 0.0
2014-Oct-26 03:33N 37°30' W 122°13'0 0.0
2014-Oct-26 02:34N 37°30' W 122°13'0 0.0
2014-Oct-26 01:34N 37°30' W 122°13'0 0.0
2014-Oct-26 00:33N 37°30' W 122°13'0 0.0
2014-Oct-25 23:33N 37°30' W 122°13'3 3.1
2014-Oct-25 22:34N 37°33' W 122°12'0 0.1
2014-Oct-25 21:33N 37°33' W 122°12'0 0.0
2014-Oct-25 20:34N 37°33' W 122°12'0 0.0
2014-Oct-25 19:34N 37°33' W 122°12'0 0.0
2014-Oct-25 18:34N 37°33' W 122°12'0 0.0
2014-Oct-25 17:33N 37°33' W 122°12'0 0.0
2014-Oct-25 16:34N 37°33' W 122°12'0 0.0
2014-Oct-25 15:34N 37°33' W 122°12'0 0.0
2014-Oct-25 14:34N 37°33' W 122°12'1 0.5
2014-Oct-25 13:34N 37°34' W 122°12'0 0.2
2014-Oct-25 12:31N 37°34' W 122°12'1 0.5
2014-Oct-25 11:33N 37°34' W 122°13'1 0.8
2014-Oct-25 10:34N 37°34' W 122°14'3 2.7
2014-Oct-25 09:34N 37°36' W 122°16'4 3.7
2014-Oct-25 08:34N 37°39' W 122°19'4 3.9
2014-Oct-25 07:33N 37°43' W 122°21'5 5.0
2014-Oct-25 06:34N 37°48' W 122°23'5 5.5
2014-Oct-25 05:34N 37°53' W 122°25'2 2.4
2014-Oct-25 04:34N 37°55' W 122°25'0 0.1
2014-Oct-25 03:34N 37°55' W 122°24'2 2.0
2014-Oct-25 02:33N 37°57' W 122°26'2 2.1
2014-Oct-25 01:34N 37°59' W 122°26'4 3.6
2014-Oct-25 00:34N 37°56' W 122°25'6 6.4
2014-Oct-24 23:33N 37°49' W 122°24'1313.3
2014-Oct-24 22:34N 37°37' W 122°17'7 7.5
2014-Oct-24 21:34N 37°30' W 122°13'5 4.8
2014-Oct-24 20:34N 37°35' W 122°15'9 9.0
2014-Oct-24 19:34N 37°43' W 122°20'8 7.7
2014-Oct-24 18:34N 37°49' W 122°25'5 5.1
2014-Oct-24 17:34N 37°54' W 122°25'1 0.9
2014-Oct-24 16:33N 37°55' W 122°24'0 0.0
2014-Oct-24 15:34N 37°55' W 122°24'0 0.0
2014-Oct-24 14:33N 37°55' W 122°24'4 4.1
2014-Oct-24 13:34N 37°59' W 122°27'0 0.0
2014-Oct-24 12:33N 37°59' W 122°27'0 0.0
2014-Oct-24 11:34N 37°59' W 122°27'0 0.0
2014-Oct-24 10:33N 37°59' W 122°27'0 0.0
2014-Oct-24 09:34N 37°59' W 122°27'0 0.1
2014-Oct-24 08:34N 37°59' W 122°27'0 0.0
2014-Oct-24 07:34N 37°59' W 122°27'0 0.0
2014-Oct-24 06:34N 37°59' W 122°27'0 0.0
2014-Oct-24 05:34N 37°59' W 122°27'0 0.0
2014-Oct-24 04:34N 37°59' W 122°27'0 0.1
2014-Oct-24 03:33N 37°59' W 122°27'4 4.2
2014-Oct-24 02:33N 37°55' W 122°25'5 5.2
2014-Oct-24 01:34N 37°50' W 122°25'6 5.6
2014-Oct-24 00:34N 37°56' W 122°25'0 0.4
2014-Oct-23 23:34N 37°55' W 122°25'4 4.3
2014-Oct-23 22:33N 37°59' W 122°27'0 0.0
2014-Oct-23 21:33N 37°59' W 122°27'0 0.0
2014-Oct-23 20:33N 37°59' W 122°27'0 0.0
2014-Oct-23 19:33N 37°59' W 122°27'0 0.0
2014-Oct-23 18:33N 37°59' W 122°27'1 0.5
2014-Oct-23 17:33N 37°59' W 122°27'0 0.0
2014-Oct-23 16:34N 37°59' W 122°27'0 0.0
2014-Oct-23 15:28N 37°59' W 122°27'0 0.0
2014-Oct-23 14:33N 37°59' W 122°27'0 0.0
2014-Oct-23 13:33N 37°59' W 122°27'0 0.0
2014-Oct-23 12:31N 37°59' W 122°27'4 4.1
2014-Oct-23 11:33N 37°55' W 122°24'1 0.6
2014-Oct-23 10:33N 37°56' W 122°25'1 1.5
2014-Oct-23 09:33N 37°57' W 122°26'2 2.0
2014-Oct-23 08:33N 37°59' W 122°27'0 0.1
2014-Oct-23 07:33N 37°59' W 122°27'4 4.0
2014-Oct-23 06:33N 37°55' W 122°25'7 6.7
2014-Oct-23 05:33N 37°49' W 122°29'5 5.2
2014-Oct-23 04:33N 37°46' W 122°34'4 3.8
2014-Oct-23 03:33N 37°48' W 122°31'5 4.7
2014-Oct-23 02:33N 37°50' W 122°26'6 6.1
2014-Oct-23 01:33N 37°56' W 122°27'8 7.4
2014-Oct-23 00:32N 38°02' W 122°21'4 4.1
2014-Oct-22 23:30N 38°03' W 122°16'0 0.0
2014-Oct-22 18:12N 38°03' W 122°16'0 0.0
2014-Oct-22 16:30N 38°03' W 122°16'0 0.0
2014-Oct-22 15:30N 38°03' W 122°16'0 0.0
2014-Oct-22 14:30N 38°03' W 122°16'0 0.0
2014-Oct-22 13:30N 38°03' W 122°16'0 0.0
2014-Oct-22 12:30N 38°03' W 122°16'0 0.0
2014-Oct-22 11:30N 38°03' W 122°16'0 0.0
2014-Oct-22 10:24N 38°03' W 122°16'0 0.0
2014-Oct-22 09:30N 38°03' W 122°16'0 0.0
2014-Oct-22 08:17N 38°03' W 122°16'0 0.0
2014-Oct-22 07:33N 38°03' W 122°16'0 0.0
2014-Oct-22 06:26N 38°03' W 122°16'0 0.0
2014-Oct-22 05:17N 38°03' W 122°16'0 0.0
2014-Oct-22 04:33N 38°03' W 122°16'0 0.0
2014-Oct-22 03:33N 38°03' W 122°16'0 0.4
2014-Oct-22 02:33N 38°03' W 122°16'5 4.8
2014-Oct-22 01:33N 38°02' W 122°22'7 6.7
2014-Oct-22 00:33N 37°56' W 122°27'5 5.4
2014-Oct-21 23:33N 37°51' W 122°26'5 5.2
2014-Oct-21 22:33N 37°48' W 122°32'2 2.5
2014-Oct-21 21:33N 37°46' W 122°34'7 7.3
2014-Oct-21 20:33N 37°50' W 122°26'7 6.5
2014-Oct-21 19:33N 37°56' W 122°27'6 6.0
2014-Oct-21 18:33N 38°01' W 122°23'6 5.1
2014-Oct-21 17:28N 38°03' W 122°16'1 0.6
2014-Oct-21 16:27N 38°03' W 122°17'  
Track history (hours):
 
Tides and Currents Weather Stations Pressure Air Temp Water Temp Dewpoint Dewpoint Depression Visibility Wind Speed Wind Dir Waves Ship Positions

Arthur Brusco

Owner: Brusco Tug & Barge, Inc., Longview, WA. More information available from US FCC via Universal Licensing System and Coast Guard Vessel Documentation Center.

Last reported at 2014-Oct-31 15:33 UTC. Time now 2014-Oct-31 15:48 UTC.
Position N 37°33' W 122°12'.

Length 35 m; draft 4.2 m.

Type: Towing. MMSI: 367008020.

Date/timePositionNaut miles runAvg speedWind from/ knotsBaromVisibWave heightAir tempDewpointWater temp
2014-Oct-31 15:33N 37°33' W 122°12'0 0.1
2014-Oct-31 14:33N 37°33' W 122°11'0 0.0
2014-Oct-31 13:33N 37°33' W 122°11'0 0.0
2014-Oct-31 12:33N 37°33' W 122°11'5 5.2
2014-Oct-31 11:33N 37°36' W 122°17'1111.0
2014-Oct-31 10:33N 37°46' W 122°22'2 1.6
2014-Oct-31 09:33N 37°48' W 122°23'7 7.1
2014-Oct-31 08:33N 37°41' W 122°20'8 8.0
2014-Oct-31 07:33N 37°35' W 122°14'4 3.5
2014-Oct-31 06:33N 37°32' W 122°12'2 1.6
2014-Oct-31 05:33N 37°33' W 122°12'0 0.0
2014-Oct-31 04:33N 37°33' W 122°12'0 0.0
2014-Oct-31 03:33N 37°33' W 122°12'0 0.0
2014-Oct-31 02:33N 37°33' W 122°12'0 0.1
2014-Oct-31 01:33N 37°33' W 122°11'0 0.0
2014-Oct-31 00:33N 37°33' W 122°11'0 0.0
2014-Oct-30 23:33N 37°33' W 122°11'0 0.0
2014-Oct-30 22:33N 37°33' W 122°11'0 0.0
2014-Oct-30 21:33N 37°33' W 122°11'6 5.5
2014-Oct-30 20:33N 37°37' W 122°17'9 9.0
2014-Oct-30 19:33N 37°45' W 122°22'5 5.0
2014-Oct-30 18:33N 37°49' W 122°25'8 7.8
2014-Oct-30 17:33N 37°42' W 122°20'8 7.7
2014-Oct-30 16:33N 37°35' W 122°16'5 4.8
2014-Oct-30 15:33N 37°32' W 122°12'1 1.4
2014-Oct-30 14:32N 37°30' W 122°13'0 0.0
2014-Oct-30 13:31N 37°30' W 122°13'0 0.0
2014-Oct-30 12:32N 37°30' W 122°13'0 0.0
2014-Oct-30 07:32N 37°31' W 122°13'3 2.9
2014-Oct-30 06:33N 37°33' W 122°12'0 0.0
2014-Oct-30 05:33N 37°33' W 122°12'0 0.0
2014-Oct-30 04:33N 37°33' W 122°12'0 0.0
2014-Oct-30 03:33N 37°33' W 122°12'2 2.0
2014-Oct-30 02:33N 37°34' W 122°14'8 7.9
2014-Oct-30 01:33N 37°41' W 122°19'8 8.0
2014-Oct-30 00:33N 37°48' W 122°24'1 0.8
2014-Oct-29 23:33N 37°47' W 122°23'7 6.8
2014-Oct-29 22:33N 37°41' W 122°20'6 6.1
2014-Oct-29 21:33N 37°36' W 122°16'4 4.4
2014-Oct-29 20:33N 37°33' W 122°12'3 0.2
2014-Oct-29 07:06N 37°30' W 122°13'0 0.0
2014-Oct-29 05:25N 37°30' W 122°13'0 0.0
2014-Oct-29 04:09N 37°30' W 122°13'2 3.5
2014-Oct-29 03:33N 37°32' W 122°12'1 1.0
2014-Oct-29 02:33N 37°33' W 122°12'0 0.0
2014-Oct-29 01:33N 37°33' W 122°12'0 0.1
2014-Oct-29 00:33N 37°33' W 122°11'0 0.1
2014-Oct-28 23:33N 37°33' W 122°11'0 0.0
2014-Oct-28 22:33N 37°33' W 122°11'0 0.0
2014-Oct-28 21:33N 37°33' W 122°11'6 5.6
2014-Oct-28 20:33N 37°37' W 122°17'9 9.3
2014-Oct-28 19:33N 37°45' W 122°22'4 4.2
2014-Oct-28 18:33N 37°49' W 122°24'6 5.7
2014-Oct-28 17:33N 37°44' W 122°21'7 6.6
2014-Oct-28 16:33N 37°38' W 122°18'6 6.1
2014-Oct-28 15:30N 37°33' W 122°12'3 2.7
2014-Oct-28 14:33N 37°31' W 122°13'0 0.4
2014-Oct-28 13:30N 37°30' W 122°13'0 0.0
2014-Oct-28 12:30N 37°30' W 122°13'0 0.0
2014-Oct-28 10:18N 37°30' W 122°13'0 0.0
2014-Oct-28 09:24N 37°30' W 122°13'0 0.0
2014-Oct-28 08:33N 37°30' W 122°13'0 0.0
2014-Oct-28 07:33N 37°30' W 122°13'0 0.0
2014-Oct-28 06:32N 37°30' W 122°13'0 0.0
2014-Oct-28 05:32N 37°30' W 122°13'0 0.0
2014-Oct-28 04:32N 37°30' W 122°13'0 0.0
2014-Oct-28 03:32N 37°30' W 122°13'0 0.0
2014-Oct-28 02:33N 37°30' W 122°13'0 0.0
2014-Oct-28 01:32N 37°30' W 122°13'0 0.0
2014-Oct-28 00:33N 37°30' W 122°13'4 4.1
2014-Oct-27 23:33N 37°34' W 122°14'1111.2
2014-Oct-27 22:33N 37°44' W 122°21'1110.9
2014-Oct-27 21:33N 37°55' W 122°25'4 3.6
2014-Oct-27 20:33N 37°51' W 122°24'5 5.1
2014-Oct-27 19:33N 37°46' W 122°22'5 4.8
2014-Oct-27 18:33N 37°42' W 122°20'5 5.2
2014-Oct-27 17:33N 37°37' W 122°17'6 5.9
2014-Oct-27 16:33N 37°33' W 122°12'1 1.0
2014-Oct-27 15:32N 37°32' W 122°12'0 0.0
2014-Oct-27 14:32N 37°32' W 122°12'2 1.7
2014-Oct-27 13:29N 37°30' W 122°13'0 0.5
2014-Oct-27 12:33N 37°31' W 122°13'4 4.4
2014-Oct-27 11:33N 37°35' W 122°15'7 6.6
2014-Oct-27 10:33N 37°40' W 122°20'7 7.2
2014-Oct-27 09:33N 37°47' W 122°23'6 6.2
2014-Oct-27 08:33N 37°53' W 122°25'2 2.1
2014-Oct-27 07:31N 37°55' W 122°25'0 0.1
2014-Oct-27 06:28N 37°55' W 122°25'4 4.2
2014-Oct-27 05:33N 37°52' W 122°24'1010.3
2014-Oct-27 04:33N 37°42' W 122°20'1111.2
2014-Oct-27 03:33N 37°33' W 122°12'2 2.4
2014-Oct-27 02:30N 37°30' W 122°13'0 0.0
2014-Oct-27 01:30N 37°30' W 122°13'0 0.0
2014-Oct-27 00:30N 37°30' W 122°13'0 0.0
2014-Oct-26 23:30N 37°30' W 122°13'0 0.0
2014-Oct-26 22:24N 37°30' W 122°13'0 0.0
2014-Oct-26 21:30N 37°30' W 122°13'0 0.1
2014-Oct-26 20:32N 37°30' W 122°13'0 0.0
2014-Oct-26 19:32N 37°30' W 122°13'0 0.0
2014-Oct-26 18:32N 37°30' W 122°13'0 0.0
2014-Oct-26 17:32N 37°30' W 122°13'0 0.0
2014-Oct-26 16:26N 37°30' W 122°13'0 0.0
2014-Oct-26 15:32N 37°30' W 122°13'0 0.0
2014-Oct-26 14:26N 37°30' W 122°13'0 0.0
2014-Oct-26 13:32N 37°30' W 122°13'0 0.0
2014-Oct-26 12:32N 37°30' W 122°13'0 0.0
2014-Oct-26 11:32N 37°30' W 122°13'0 0.0
2014-Oct-26 10:32N 37°30' W 122°13'0 0.0
2014-Oct-26 09:32N 37°30' W 122°13'0 0.0
2014-Oct-26 08:32N 37°30' W 122°13'0 0.0
2014-Oct-26 07:34N 37°30' W 122°13'0 0.0
2014-Oct-26 06:34N 37°30' W 122°13'0 0.0
2014-Oct-26 05:34N 37°30' W 122°13'0 0.0
2014-Oct-26 04:34N 37°30' W 122°13'0 0.0
2014-Oct-26 03:33N 37°30' W 122°13'0 0.0
2014-Oct-26 02:34N 37°30' W 122°13'0 0.0
2014-Oct-26 01:34N 37°30' W 122°13'0 0.0
2014-Oct-26 00:33N 37°30' W 122°13'0 0.0
2014-Oct-25 23:33N 37°30' W 122°13'3 3.1
2014-Oct-25 22:34N 37°33' W 122°12'0 0.1
2014-Oct-25 21:33N 37°33' W 122°12'0 0.0
2014-Oct-25 20:34N 37°33' W 122°12'0 0.0
2014-Oct-25 19:34N 37°33' W 122°12'0 0.0
2014-Oct-25 18:34N 37°33' W 122°12'0 0.0
2014-Oct-25 17:33N 37°33' W 122°12'0 0.0
2014-Oct-25 16:34N 37°33' W 122°12'0 0.0
2014-Oct-25 15:34N 37°33' W 122°12'0 0.0
2014-Oct-25 14:34N 37°33' W 122°12'1 0.5
2014-Oct-25 13:34N 37°34' W 122°12'0 0.2
2014-Oct-25 12:31N 37°34' W 122°12'1 0.5
2014-Oct-25 11:33N 37°34' W 122°13'1 0.8
2014-Oct-25 10:34N 37°34' W 122°14'3 2.7
2014-Oct-25 09:34N 37°36' W 122°16'4 3.7
2014-Oct-25 08:34N 37°39' W 122°19'4 3.9
2014-Oct-25 07:33N 37°43' W 122°21'5 5.0
2014-Oct-25 06:34N 37°48' W 122°23'5 5.5
2014-Oct-25 05:34N 37°53' W 122°25'2 2.4
2014-Oct-25 04:34N 37°55' W 122°25'0 0.1
2014-Oct-25 03:34N 37°55' W 122°24'2 2.0
2014-Oct-25 02:33N 37°57' W 122°26'2 2.1
2014-Oct-25 01:34N 37°59' W 122°26'4 3.6
2014-Oct-25 00:34N 37°56' W 122°25'6 6.4
2014-Oct-24 23:33N 37°49' W 122°24'1313.3
2014-Oct-24 22:34N 37°37' W 122°17'7 7.5
2014-Oct-24 21:34N 37°30' W 122°13'5 4.8
2014-Oct-24 20:34N 37°35' W 122°15'9 9.0
2014-Oct-24 19:34N 37°43' W 122°20'8 7.7
2014-Oct-24 18:34N 37°49' W 122°25'5 5.1
2014-Oct-24 17:34N 37°54' W 122°25'1 0.9
2014-Oct-24 16:33N 37°55' W 122°24'0 0.0
2014-Oct-24 15:34N 37°55' W 122°24'0 0.0
2014-Oct-24 14:33N 37°55' W 122°24'4 4.1
2014-Oct-24 13:34N 37°59' W 122°27'0 0.0
2014-Oct-24 12:33N 37°59' W 122°27'0 0.0
2014-Oct-24 11:34N 37°59' W 122°27'0 0.0
2014-Oct-24 10:33N 37°59' W 122°27'0 0.0
2014-Oct-24 09:34N 37°59' W 122°27'0 0.1
2014-Oct-24 08:34N 37°59' W 122°27'0 0.0
2014-Oct-24 07:34N 37°59' W 122°27'0 0.0
2014-Oct-24 06:34N 37°59' W 122°27'0 0.0
2014-Oct-24 05:34N 37°59' W 122°27'0 0.0
2014-Oct-24 04:34N 37°59' W 122°27'0 0.1
2014-Oct-24 03:33N 37°59' W 122°27'4 4.2
2014-Oct-24 02:33N 37°55' W 122°25'5 5.2
2014-Oct-24 01:34N 37°50' W 122°25'6 5.6
2014-Oct-24 00:34N 37°56' W 122°25'0 0.4
2014-Oct-23 23:34N 37°55' W 122°25'4 4.3
2014-Oct-23 22:33N 37°59' W 122°27'0 0.0
2014-Oct-23 21:33N 37°59' W 122°27'0 0.0
2014-Oct-23 20:33N 37°59' W 122°27'0 0.0
2014-Oct-23 19:33N 37°59' W 122°27'0 0.0
2014-Oct-23 18:33N 37°59' W 122°27'1 0.5
2014-Oct-23 17:33N 37°59' W 122°27'0 0.0
2014-Oct-23 16:34N 37°59' W 122°27'0 0.0
2014-Oct-23 15:28N 37°59' W 122°27'0 0.0
2014-Oct-23 14:33N 37°59' W 122°27'0 0.0
2014-Oct-23 13:33N 37°59' W 122°27'0 0.0
2014-Oct-23 12:31N 37°59' W 122°27'4 4.1
2014-Oct-23 11:33N 37°55' W 122°24'1 0.6
2014-Oct-23 10:33N 37°56' W 122°25'1 1.5
2014-Oct-23 09:33N 37°57' W 122°26'2 2.0
2014-Oct-23 08:33N 37°59' W 122°27'0 0.1
2014-Oct-23 07:33N 37°59' W 122°27'4 4.0
2014-Oct-23 06:33N 37°55' W 122°25'7 6.7
2014-Oct-23 05:33N 37°49' W 122°29'5 5.2
2014-Oct-23 04:33N 37°46' W 122°34'4 3.8
2014-Oct-23 03:33N 37°48' W 122°31'5 4.7
2014-Oct-23 02:33N 37°50' W 122°26'6 6.1
2014-Oct-23 01:33N 37°56' W 122°27'8 7.4
2014-Oct-23 00:32N 38°02' W 122°21'4 4.1
2014-Oct-22 23:30N 38°03' W 122°16'0 0.0
2014-Oct-22 18:12N 38°03' W 122°16'0 0.0
2014-Oct-22 16:30N 38°03' W 122°16'0 0.0
2014-Oct-22 15:30N 38°03' W 122°16'0 0.0
2014-Oct-22 14:30N 38°03' W 122°16'0 0.0
2014-Oct-22 13:30N 38°03' W 122°16'0 0.0
2014-Oct-22 12:30N 38°03' W 122°16'0 0.0
2014-Oct-22 11:30N 38°03' W 122°16'0 0.0
2014-Oct-22 10:24N 38°03' W 122°16'0 0.0
2014-Oct-22 09:30N 38°03' W 122°16'0 0.0
2014-Oct-22 08:17N 38°03' W 122°16'0 0.0
2014-Oct-22 07:33N 38°03' W 122°16'0 0.0
2014-Oct-22 06:26N 38°03' W 122°16'0 0.0
2014-Oct-22 05:17N 38°03' W 122°16'0 0.0
2014-Oct-22 04:33N 38°03' W 122°16'0 0.0
2014-Oct-22 03:33N 38°03' W 122°16'0 0.4
2014-Oct-22 02:33N 38°03' W 122°16'5 4.8
2014-Oct-22 01:33N 38°02' W 122°22'7 6.7
2014-Oct-22 00:33N 37°56' W 122°27'5 5.4
2014-Oct-21 23:33N 37°51' W 122°26'5 5.2
2014-Oct-21 22:33N 37°48' W 122°32'2 2.5
2014-Oct-21 21:33N 37°46' W 122°34'7 7.3
2014-Oct-21 20:33N 37°50' W 122°26'7 6.5
2014-Oct-21 19:33N 37°56' W 122°27'6 6.0
2014-Oct-21 18:33N 38°01' W 122°23'6 5.1
2014-Oct-21 17:28N 38°03' W 122°16'1 0.6
2014-Oct-21 16:27N 38°03' W 122°17'  

Dump ship's entire track history